Time;durP1;ratioP1;P1;durP2;ratioP2;P2;SDS_P1;SDS_P2;PMS_P1;PMS_P2;Temp;Humidity;BMP_temperature;BMP_pressure;BME280_temperature;BME280_humidity;BME280_pressure;Samples;Min_cycle;Max_cycle;Signal;HPM_P1;HPM_P2
2022/05/27 00:00:57;;;;;;;;;;;;;;;20.12;57.97;101153.56;4987142;28;96824;-67
2022/05/27 00:03:23;;;;;;;;;;;;;;;20.07;58.65;101153.03;5002427;28;99760;-69
2022/05/27 00:05:50;;;;;;;;;;;;;;;19.71;60.12;101147.47;5009142;28;97807;-66
2022/05/27 00:08:17;;;;;;;;;;;;;;;19.40;60.74;101141.44;5000184;28;96932;-67
2022/05/27 00:10:43;;;;;;;;;;;;;;;19.80;60.54;101133.44;4993021;28;96954;-67
2022/05/27 00:13:10;;;;;;;;;;;;;;;19.47;60.28;101129.38;4998123;28;99067;-68
2022/05/27 00:15:36;;;;;;;;;;;;;;;19.58;60.53;101130.47;5006018;28;100420;-66
2022/05/27 00:18:04;;;;;;;;;;;;;;;19.65;59.98;101132.66;5006813;28;97043;-67
2022/05/27 00:20:30;;;;;;;;;;;;;;;19.21;61.58;101122.16;5005440;28;97054;-67
2022/05/27 00:22:56;;;;;;;;;;;;;;;19.27;61.04;101115.56;5000030;28;102698;-67
2022/05/27 00:25:23;;;;;;;;;;;;;;;19.41;61.23;101119.03;4999953;28;98753;-66
2022/05/27 00:27:49;;;;;;;;;;;;;;;19.27;61.38;101121.78;5002488;28;96959;-68
2022/05/27 00:30:15;;;;;;;;;;;;;;;19.08;62.19;101110.53;5007638;28;97113;-66
2022/05/27 00:32:42;;;;;;;;;;;;;;;19.58;61.01;101099.19;5001550;28;98910;-67
2022/05/27 00:35:09;;;;;;;;;;;;;;;19.13;61.85;101096.84;5004323;28;99160;-68
2022/05/27 00:37:36;;;;;;;;;;;;;;;19.01;62.28;101111.91;5008069;28;96982;-68
2022/05/27 00:40:02;;;;;;;;;;;;;;;18.56;63.63;101102.31;5003270;28;97869;-68
2022/05/27 00:42:29;;;;;;;;;;;;;;;19.27;62.41;101094.97;4999744;28;98866;-68
2022/05/27 00:44:55;;;;;;;;;;;;;;;18.96;62.46;101082.75;5007770;28;99279;-68
2022/05/27 00:47:23;;;;;;;;;;;;;;;18.46;63.83;101075.22;4999248;28;99213;-69
2022/05/27 00:49:51;;;;;;;;;;;;;;;18.25;65.58;101085.44;5007532;28;96907;-68
2022/05/27 00:52:21;;;;;;;;;;;;;;;18.91;63.98;101079.47;5003414;28;99101;-68
2022/05/27 00:54:47;;;;;;;;;;;;;;;18.85;64.27;101081.69;5004710;28;99025;-68
2022/05/27 00:57:17;;;;;;;;;;;;;;;19.02;63.92;101076.13;5000680;28;96925;-68
2022/05/27 00:59:46;;;;;;;;;;;;;;;19.31;63.16;101076.88;5005300;28;97227;-68
2022/05/27 01:02:12;;;;;;;;;;;;;;;18.75;64.44;101075.22;4999493;28;97441;-69
2022/05/27 01:04:39;;;;;;;;;;;;;;;18.91;64.52;101071.44;5002368;28;99685;-68
2022/05/27 01:07:05;;;;;;;;;;;;;;;19.44;62.82;101069.72;5002574;28;96908;-68
2022/05/27 01:09:35;;;;;;;;;;;;;;;18.98;64.22;101077.25;5001218;28;97103;-68
2022/05/27 01:12:07;;;;;;;;;;;;;;;19.39;62.71;101072.72;4999082;28;98850;-68
2022/05/27 01:14:40;;;;;;;;;;;;;;;19.11;64.03;101065.66;5004269;28;99099;-67
2022/05/27 01:17:10;;;;;;;;;;;;;;;19.58;62.36;101064.31;5002766;28;96777;-68
2022/05/27 01:22:45;;;;;;;;;;;;;;;18.73;64.44;101066.44;5006461;28;97437;-68
2022/05/27 01:25:29;;;;;;;;;;;;;;;19.08;64.42;101068.56;5003703;28;98862;-68
2022/05/27 01:28:09;;;;;;;;;;;;;;;18.63;65.81;101058.16;4999910;28;96818;-68
2022/05/27 01:30:37;;;;;;;;;;;;;;;18.32;66.46;101060.03;5006872;28;98364;-68
2022/05/27 01:33:10;;;;;;;;;;;;;;;19.02;65.06;101052.03;5001669;28;99670;-68
2022/05/27 01:35:41;;;;;;;;;;;;;;;19.08;64.02;101049.81;5002884;28;98881;-69
2022/05/27 01:38:11;;;;;;;;;;;;;;;19.38;63.34;101043.34;5007024;28;96823;-69
2022/05/27 01:40:41;;;;;;;;;;;;;;;19.43;62.83;101046.56;5012302;28;96908;-67
2022/05/27 01:43:15;;;;;;;;;;;;;;;19.06;63.75;101042.81;5006380;28;101930;-67
2022/05/27 01:45:46;;;;;;;;;;;;;;;19.36;63.56;101051.47;5012330;28;99283;-67
2022/05/27 01:48:16;;;;;;;;;;;;;;;19.51;62.71;101046.94;5008334;28;97766;-68
2022/05/27 01:50:45;;;;;;;;;;;;;;;19.41;62.89;101043.16;5006922;28;97032;-68
2022/05/27 01:53:14;;;;;;;;;;;;;;;19.28;63.27;101036.91;4999391;28;99062;-67
2022/05/27 01:55:43;;;;;;;;;;;;;;;19.23;63.75;101031.00;5006991;28;98727;-69
2022/05/27 01:58:12;;;;;;;;;;;;;;;18.87;64.05;101043.16;5003197;28;97451;-67
2022/05/27 02:00:40;;;;;;;;;;;;;;;19.03;64.20;101041.19;4998814;28;96902;-68
2022/05/27 02:03:11;;;;;;;;;;;;;;;18.77;64.71;101046.56;5000257;28;99052;-68
2022/05/27 02:05:40;;;;;;;;;;;;;;;19.46;62.60;101027.66;5005538;28;99031;-67
2022/05/27 02:08:08;;;;;;;;;;;;;;;19.11;63.22;101024.59;5005297;28;96883;-68
2022/05/27 02:10:37;;;;;;;;;;;;;;;19.11;63.67;101027.28;5002555;28;96860;-67
2022/05/27 02:13:06;;;;;;;;;;;;;;;18.99;63.89;101034.31;5001433;28;98984;-67
2022/05/27 02:15:34;;;;;;;;;;;;;;;19.25;63.35;101021.88;5001159;28;99062;-67
2022/05/27 02:18:03;;;;;;;;;;;;;;;19.60;62.34;101024.03;5007237;28;96756;-68
2022/05/27 02:20:34;;;;;;;;;;;;;;;19.49;62.28;101020.25;4999002;28;99092;-67
2022/05/27 02:23:02;;;;;;;;;;;;;;;19.43;62.27;101014.41;5003468;28;98206;-67
2022/05/27 02:25:31;;;;;;;;;;;;;;;19.50;62.21;101027.31;5011967;28;100993;-67
2022/05/27 02:28:00;;;;;;;;;;;;;;;18.87;64.53;101018.22;5003943;28;97283;-68
2022/05/27 02:30:30;;;;;;;;;;;;;;;19.37;62.68;101026.41;5005733;28;97589;-69
2022/05/27 02:35:41;;;;;;;;;;;;;;;19.25;63.10;101027.22;4999205;28;101584;-67
2022/05/27 02:38:07;;;;;;;;;;;;;;;19.46;62.28;101035.69;4995303;28;98802;-67
2022/05/27 02:40:37;;;;;;;;;;;;;;;19.31;62.16;101024.13;5005978;28;96784;-68
2022/05/27 02:43:10;;;;;;;;;;;;;;;18.89;62.83;101018.97;5005642;28;97902;-68
2022/05/27 02:45:40;;;;;;;;;;;;;;;19.13;62.86;101036.09;5004354;28;98664;-67
2022/05/27 02:48:13;;;;;;;;;;;;;;;19.32;62.09;101031.22;4999986;28;97841;-67
2022/05/27 02:50:44;;;;;;;;;;;;;;;19.42;61.52;101020.75;5001264;28;96927;-67
2022/05/27 02:53:15;;;;;;;;;;;;;;;18.98;63.08;101018.34;5006040;28;99360;-68
2022/05/27 02:55:48;;;;;;;;;;;;;;;18.62;64.10;101026.97;5005166;28;99314;-67
2022/05/27 02:58:14;;;;;;;;;;;;;;;18.62;63.32;101027.84;5001507;28;97452;-67
2022/05/27 03:00:43;;;;;;;;;;;;;;;18.80;63.99;101030.28;5005970;28;97308;-67
2022/05/27 03:03:10;;;;;;;;;;;;;;;18.79;64.07;101028.56;4998481;28;100051;-67
2022/05/27 03:05:44;;;;;;;;;;;;;;;18.85;63.45;101017.44;5001397;28;98100;-68
2022/05/27 03:08:16;;;;;;;;;;;;;;;18.91;62.98;101025.06;5005025;28;97723;-68
2022/05/27 03:10:52;;;;;;;;;;;;;;;18.74;63.22;101025.31;5000798;28;98366;-68
2022/05/27 03:13:28;;;;;;;;;;;;;;;18.84;63.27;101019.25;5001687;28;97732;-67
2022/05/27 03:16:04;;;;;;;;;;;;;;;19.28;61.72;101019.00;5007611;28;98751;-67
2022/05/27 03:18:36;;;;;;;;;;;;;;;19.37;60.81;101013.00;5006122;28;96875;-68
2022/05/27 03:21:10;;;;;;;;;;;;;;;18.93;62.17;101013.31;5006267;28;96840;-68
2022/05/27 03:23:45;;;;;;;;;;;;;;;18.69;63.34;101018.47;5005015;28;99905;-68
2022/05/27 03:26:16;;;;;;;;;;;;;;;19.41;61.32;101016.34;5003523;28;99498;-67
2022/05/27 03:28:49;;;;;;;;;;;;;;;19.52;60.57;101007.59;5008723;28;97871;-67
2022/05/27 03:31:19;;;;;;;;;;;;;;;19.47;60.45;101006.09;5002897;28;97253;-68
2022/05/27 03:33:48;;;;;;;;;;;;;;;19.39;60.72;101016.44;5005188;28;98063;-68
2022/05/27 03:36:18;;;;;;;;;;;;;;;18.83;62.75;101016.69;5007778;28;99444;-68
2022/05/27 03:38:51;;;;;;;;;;;;;;;19.07;61.52;101020.44;4999582;28;96885;-68
2022/05/27 03:41:21;;;;;;;;;;;;;;;19.35;61.24;101016.78;5004487;28;97992;-67
2022/05/27 03:43:47;;;;;;;;;;;;;;;19.58;60.08;101025.94;4995333;28;99586;-68
2022/05/27 03:46:14;;;;;;;;;;;;;;;19.17;60.33;101016.16;5001123;28;99089;-67
2022/05/27 03:48:40;;;;;;;;;;;;;;;19.79;59.45;101013.75;5000909;28;96831;-69
2022/05/27 03:51:10;;;;;;;;;;;;;;;19.80;59.27;101016.31;5005455;28;98818;-67
2022/05/27 03:56:22;;;;;;;;;;;;;;;19.85;58.62;101016.00;5008595;28;97568;-67
2022/05/27 03:58:48;;;;;;;;;;;;;;;19.35;59.88;101011.41;5000056;28;96898;-67
2022/05/27 04:01:14;;;;;;;;;;;;;;;19.59;59.66;101019.63;5000880;28;99134;-67
2022/05/27 04:03:40;;;;;;;;;;;;;;;19.55;59.78;101027.03;4997315;28;98814;-68
2022/05/27 04:06:07;;;;;;;;;;;;;;;19.15;61.71;101027.97;5008192;28;98096;-69
2022/05/27 04:08:33;;;;;;;;;;;;;;;19.11;62.21;101028.16;5007449;28;97336;-68
2022/05/27 04:11:00;;;;;;;;;;;;;;;19.42;61.22;101024.28;5002392;28;96859;-68
2022/05/27 04:13:27;;;;;;;;;;;;;;;19.49;60.60;101014.06;5004020;28;99384;-68
2022/05/27 04:15:53;;;;;;;;;;;;;;;19.16;61.49;101025.19;4999767;28;98076;-68
2022/05/27 04:18:20;;;;;;;;;;;;;;;19.38;60.90;101017.41;5004936;28;98584;-68
2022/05/27 04:20:46;;;;;;;;;;;;;;;19.58;60.33;101023.25;4999299;28;96837;-69
2022/05/27 04:23:12;;;;;;;;;;;;;;;19.76;59.44;101020.16;5002136;28;98982;-69
2022/05/27 04:25:39;;;;;;;;;;;;;;;19.36;60.70;101011.28;5002609;28;98850;-68
2022/05/27 04:28:05;;;;;;;;;;;;;;;19.36;60.51;101007.78;4999085;28;97849;-69
2022/05/27 04:30:33;;;;;;;;;;;;;;;19.16;61.15;101011.78;4997867;28;98475;-69
2022/05/27 04:32:59;;;;;;;;;;;;;;;19.69;59.97;101007.31;5002873;28;99082;-68
2022/05/27 04:35:25;;;;;;;;;;;;;;;19.56;60.13;100998.41;5001604;28;99146;-68
2022/05/27 04:37:52;;;;;;;;;;;;;;;19.76;59.57;101000.53;5003050;28;97089;-69
2022/05/27 04:40:18;;;;;;;;;;;;;;;19.72;59.78;100999.03;5005572;28;96940;-67
2022/05/27 04:42:44;;;;;;;;;;;;;;;19.73;59.36;101016.84;4999962;28;99228;-67
2022/05/27 04:45:11;;;;;;;;;;;;;;;19.46;60.68;101015.09;4999280;28;99347;-67
2022/05/27 04:47:38;;;;;;;;;;;;;;;19.53;60.52;101022.72;5001914;28;97816;-68
2022/05/27 04:50:06;;;;;;;;;;;;;;;19.60;59.74;101032.94;5001683;28;99136;-68
2022/05/27 04:52:33;;;;;;;;;;;;;;;19.33;60.78;101029.41;5006845;28;99232;-67
2022/05/27 04:55:00;;;;;;;;;;;;;;;19.49;60.36;101019.41;5005113;28;99056;-68
2022/05/27 04:57:27;;;;;;;;;;;;;;;19.67;59.99;101019.97;4993032;28;97013;-67
2022/05/27 04:59:54;;;;;;;;;;;;;;;19.67;60.17;101030.69;5002681;28;97155;-68
2022/05/27 05:02:21;;;;;;;;;;;;;;;19.60;60.47;101018.66;5007348;28;99014;-67
2022/05/27 05:04:49;;;;;;;;;;;;;;;19.17;60.72;101020.66;4994653;28;98875;-68
2022/05/27 05:07:15;;;;;;;;;;;;;;;19.39;61.06;101024.50;5001505;28;96969;-67
2022/05/27 05:09:43;;;;;;;;;;;;;;;19.36;60.80;101030.03;4999503;28;96955;-67
2022/05/27 05:12:10;;;;;;;;;;;;;;;19.26;61.88;101042.34;4995451;28;99103;-68
2022/05/27 05:14:37;;;;;;;;;;;;;;;19.01;62.24;101043.13;4997435;28;98326;-68
2022/05/27 05:17:03;;;;;;;;;;;;;;;19.14;61.96;101048.53;4992947;28;97672;-67
2022/05/27 05:19:30;;;;;;;;;;;;;;;18.59;64.16;101043.22;4998692;28;98576;-70
2022/05/27 05:21:57;;;;;;;;;;;;;;;19.01;63.12;101055.66;5001696;28;98901;-68
2022/05/27 05:24:24;;;;;;;;;;;;;;;18.68;63.82;101051.53;5001090;28;99262;-67
2022/05/27 05:26:50;;;;;;;;;;;;;;;19.21;62.77;101065.06;4997118;28;98610;-67
2022/05/27 05:29:17;;;;;;;;;;;;;;;18.73;63.64;101061.06;5006316;28;96904;-68
2022/05/27 05:31:43;;;;;;;;;;;;;;;18.48;64.50;101048.38;5003944;28;99608;-68
2022/05/27 05:34:09;;;;;;;;;;;;;;;18.59;64.05;101054.78;5010706;28;98353;-68
2022/05/27 05:36:36;;;;;;;;;;;;;;;19.19;61.78;101045.53;5004293;27;98616;-68
2022/05/27 05:39:03;;;;;;;;;;;;;;;19.38;61.16;101044.19;5002313;28;97705;-67
2022/05/27 05:41:30;;;;;;;;;;;;;;;19.00;60.13;101043.22;5008866;28;98928;-67
2022/05/27 05:43:57;;;;;;;;;;;;;;;19.15;60.15;101034.19;5002316;28;99133;-68
2022/05/27 05:46:23;;;;;;;;;;;;;;;18.33;60.82;101036.81;5001496;28;96865;-67
2022/05/27 05:48:50;;;;;;;;;;;;;;;18.54;61.06;101035.47;5008769;28;96923;-67
2022/05/27 05:51:16;;;;;;;;;;;;;;;19.20;58.70;100991.88;5008188;28;99095;-67
2022/05/27 05:53:42;;;;;;;;;;;;;;;18.42;57.66;101004.13;5001953;28;101745;-68
2022/05/27 05:56:10;;;;;;;;;;;;;;;18.77;58.11;101014.44;5010361;28;96866;-67
2022/05/27 05:58:37;;;;;;;;;;;;;;;19.25;56.12;101019.19;5010378;28;96845;-67
2022/05/27 06:01:03;;;;;;;;;;;;;;;19.19;54.96;101024.09;5007706;28;99278;-67
2022/05/27 06:03:29;;;;;;;;;;;;;;;18.15;56.68;101019.25;5004511;28;102697;-68
2022/05/27 06:05:55;;;;;;;;;;;;;;;18.54;56.57;101016.72;5007916;28;96788;-67
2022/05/27 06:08:22;;;;;;;;;;;;;;;18.80;56.51;101030.28;5009701;28;96888;-68
2022/05/27 06:10:48;;;;;;;;;;;;;;;18.55;57.63;101005.09;5009601;28;97652;-68
2022/05/27 06:13:16;;;;;;;;;;;;;;;19.02;57.14;100987.75;5010953;28;98125;-69
2022/05/27 06:15:45;;;;;;;;;;;;;;;19.29;55.41;100985.03;5000430;28;96810;-69
2022/05/27 06:18:13;;;;;;;;;;;;;;;19.63;55.40;101005.03;5000444;28;98304;-68
2022/05/27 06:20:40;;;;;;;;;;;;;;;19.70;55.04;101017.91;5004256;28;98849;-67
2022/05/27 06:23:07;;;;;;;;;;;;;;;18.32;56.74;101027.06;5010235;28;99303;-67
2022/05/27 06:25:34;;;;;;;;;;;;;;;19.11;56.01;101000.50;5008299;28;96733;-68
2022/05/27 06:36:09;;;;;;;;;;;;;;;19.22;56.64;101016.75;5009599;28;96894;-67
2022/05/27 06:38:37;;;;;;;;;;;;;;;19.63;55.80;101015.75;5005823;28;97196;-67
2022/05/27 06:41:04;;;;;;;;;;;;;;;20.13;55.35;101023.84;5009886;28;98775;-67
2022/05/27 06:43:31;;;;;;;;;;;;;;;19.93;54.02;101024.38;5010181;28;98774;-67
2022/05/27 06:45:59;;;;;;;;;;;;;;;20.12;53.91;101030.16;5011760;28;97228;-69
2022/05/27 06:48:26;;;;;;;;;;;;;;;20.59;52.47;101029.47;5006181;28;97813;-68
2022/05/27 06:50:52;;;;;;;;;;;;;;;20.28;52.76;101030.75;5009986;28;99065;-68
2022/05/27 06:53:19;;;;;;;;;;;;;;;20.00;52.37;101036.38;5008222;28;99130;-69
2022/05/27 06:55:47;;;;;;;;;;;;;;;20.52;50.86;101027.34;5008432;28;96911;-68
2022/05/27 06:58:14;;;;;;;;;;;;;;;20.42;50.83;101034.31;5008955;28;97265;-67
2022/05/27 07:00:40;;;;;;;;;;;;;;;20.11;51.05;101033.81;5002090;28;98794;-68
2022/05/27 07:03:08;;;;;;;;;;;;;;;19.69;52.29;101026.91;5007544;28;98917;-68
2022/05/27 07:05:35;;;;;;;;;;;;;;;19.54;52.10;101030.66;5006371;28;96854;-69
2022/05/27 07:08:02;;;;;;;;;;;;;;;20.39;50.45;101031.88;5010620;28;96999;-69
2022/05/27 07:10:28;;;;;;;;;;;;;;;20.60;49.22;101028.50;5005964;28;99531;-68
2022/05/27 07:12:58;;;;;;;;;;;;;;;20.94;49.02;101023.31;5009948;28;98760;-69
2022/05/27 07:15:25;;;;;;;;;;;;;;;20.40;48.19;101028.22;5008456;28;98354;-67
2022/05/27 07:17:51;;;;;;;;;;;;;;;20.44;48.66;101033.25;5004029;28;97086;-67
2022/05/27 07:20:19;;;;;;;;;;;;;;;19.93;48.80;101036.91;5008240;28;99120;-69
2022/05/27 07:22:45;;;;;;;;;;;;;;;19.94;49.30;101041.31;5005005;28;98942;-69
2022/05/27 07:25:13;;;;;;;;;;;;;;;20.29;48.74;101028.94;5008266;28;97124;-68
2022/05/27 07:27:40;;;;;;;;;;;;;;;20.72;47.43;101028.56;5006086;28;97021;-68
2022/05/27 07:30:07;;;;;;;;;;;;;;;21.48;46.54;101031.78;5007465;28;99726;-69
2022/05/27 07:32:34;;;;;;;;;;;;;;;20.30;46.78;101039.56;5009828;28;99009;-69
2022/05/27 07:35:00;;;;;;;;;;;;;;;20.35;45.95;101030.38;5003066;28;96881;-68
2022/05/27 07:37:27;;;;;;;;;;;;;;;20.63;44.25;101030.09;5008362;28;97136;-69
2022/05/27 07:39:54;;;;;;;;;;;;;;;20.14;44.00;101038.97;5008364;28;99255;-69
2022/05/27 07:42:21;;;;;;;;;;;;;;;20.71;41.95;101029.53;5010117;28;98845;-69
2022/05/27 07:44:47;;;;;;;;;;;;;;;20.04;40.59;101037.03;5005346;28;97939;-69
2022/05/27 07:47:14;;;;;;;;;;;;;;;20.29;40.00;101037.84;5006568;28;98562;-68
2022/05/27 07:49:40;;;;;;;;;;;;;;;20.79;38.99;101037.91;5005852;28;97507;-68
2022/05/27 07:52:10;;;;;;;;;;;;;;;20.50;38.03;101034.63;5009604;28;100952;-69
2022/05/27 07:54:38;;;;;;;;;;;;;;;19.81;38.37;101038.63;5008076;28;96883;-68
2022/05/27 07:57:23;;;;;;;;;;;;;;;20.33;37.88;101037.69;5008718;28;97273;-69
2022/05/27 07:59:49;;;;;;;;;;;;;;;20.77;36.59;101048.75;5009389;28;97799;-68
2022/05/27 08:02:16;;;;;;;;;;;;;;;20.00;36.42;101041.75;4999877;28;98863;-69
2022/05/27 08:04:42;;;;;;;;;;;;;;;20.22;35.82;101044.63;4993868;28;97619;-67
2022/05/27 08:07:08;;;;;;;;;;;;;;;20.37;35.83;101028.44;4995404;28;97343;-69
2022/05/27 08:09:35;;;;;;;;;;;;;;;19.97;35.54;101028.53;4995977;28;97595;-68
2022/05/27 08:12:03;;;;;;;;;;;;;;;20.25;35.16;101031.00;5003982;28;97458;-68
2022/05/27 08:14:29;;;;;;;;;;;;;;;20.99;34.16;101040.84;5002273;28;96824;-69
2022/05/27 08:16:56;;;;;;;;;;;;;;;20.77;34.58;101021.88;4994855;28;96832;-69
2022/05/27 08:19:22;;;;;;;;;;;;;;;20.18;34.78;101035.09;4999617;28;101652;-70
2022/05/27 08:21:49;;;;;;;;;;;;;;;20.61;34.84;101042.78;4994078;28;101635;-68
2022/05/27 08:24:16;;;;;;;;;;;;;;;20.89;34.25;101029.03;5001502;28;96853;-69
2022/05/27 08:26:43;;;;;;;;;;;;;;;21.63;33.34;101038.69;4996703;28;97335;-68
2022/05/27 08:29:11;;;;;;;;;;;;;;;21.17;33.87;101038.63;4997014;28;98966;-68
2022/05/27 08:31:38;;;;;;;;;;;;;;;20.12;34.98;101032.84;4994103;28;101889;-69
2022/05/27 08:39:46;;;;;;;;;;;;;;;20.63;34.61;101030.09;4992625;28;97806;-68
2022/05/27 08:42:19;;;;;;;;;;;;;;;20.60;34.13;101047.31;4995128;28;99028;-69
2022/05/27 08:44:52;;;;;;;;;;;;;;;20.03;35.34;101038.84;4998201;28;97180;-68
2022/05/27 08:47:22;;;;;;;;;;;;;;;19.99;35.92;101045.41;4993935;28;97075;-68
2022/05/27 08:49:52;;;;;;;;;;;;;;;20.40;34.77;101033.59;4999553;28;99003;-68
2022/05/27 08:52:21;;;;;;;;;;;;;;;20.10;34.21;101037.44;4998565;28;101126;-68
2022/05/27 08:54:51;;;;;;;;;;;;;;;19.69;35.00;101040.31;5000466;28;96994;-68
2022/05/27 09:00:05;;;;;;;;;;;;;;;20.61;33.23;101042.78;4932714;28;1760230;-69
2022/05/27 09:02:34;;;;;;;;;;;;;;;20.85;31.48;101030.25;4999896;28;98716;-69
2022/05/27 09:05:05;;;;;;;;;;;;;;;20.00;31.71;101041.75;4999187;28;96948;-69
2022/05/27 09:07:35;;;;;;;;;;;;;;;20.53;31.14;101051.41;5000175;28;97729;-70
2022/05/27 09:10:04;;;;;;;;;;;;;;;20.21;31.67;101028.66;5001586;28;98915;-69
2022/05/27 09:12:39;;;;;;;;;;;;;;;20.29;32.03;101027.13;5002108;28;99101;-69
2022/05/27 09:15:13;;;;;;;;;;;;;;;20.92;30.72;101039.56;4994208;28;96922;-68
2022/05/27 09:17:43;;;;;;;;;;;;;;;20.53;31.29;101037.13;4990485;28;98214;-69
2022/05/27 09:20:17;;;;;;;;;;;;;;;21.11;30.63;101038.19;5002854;28;99505;-68
2022/05/27 09:22:49;;;;;;;;;;;;;;;21.76;30.01;101042.13;5001991;28;99576;-68
2022/05/27 09:25:20;;;;;;;;;;;;;;;21.12;30.46;101034.53;5004070;28;96818;-70
2022/05/27 09:27:52;;;;;;;;;;;;;;;21.37;30.55;101029.91;5003978;28;97268;-68
2022/05/27 09:30:20;;;;;;;;;;;;;;;22.05;29.82;101050.66;5005907;28;98998;-68
2022/05/27 09:32:48;;;;;;;;;;;;;;;20.62;31.43;101039.13;5001317;28;99150;-69
2022/05/27 09:35:16;;;;;;;;;;;;;;;21.66;30.00;101042.97;5003398;28;96939;-68
2022/05/27 09:37:45;;;;;;;;;;;;;;;21.49;30.42;101041.56;4996539;28;97361;-68
2022/05/27 09:40:14;;;;;;;;;;;;;;;21.43;30.85;101026.75;5004091;28;99086;-68
2022/05/27 09:42:43;;;;;;;;;;;;;;;20.83;31.39;101042.06;5003918;28;98986;-68
2022/05/27 09:45:11;;;;;;;;;;;;;;;21.37;30.87;101029.91;5002458;28;97103;-69
2022/05/27 09:47:41;;;;;;;;;;;;;;;20.85;31.64;101030.25;5000350;28;96892;-69
2022/05/27 09:50:11;;;;;;;;;;;;;;;21.30;31.07;101035.88;5000348;28;101031;-69
2022/05/27 09:52:39;;;;;;;;;;;;;;;21.59;31.06;101031.84;5005905;28;97643;-69
2022/05/27 09:55:14;;;;;;;;;;;;;;;21.38;31.62;101038.84;5002001;28;96702;-69
2022/05/27 09:57:53;;;;;;;;;;;;;;;21.35;30.55;101033.69;4999424;28;96752;-69
2022/05/27 10:00:33;;;;;;;;;;;;;;;22.02;30.13;101034.75;4997251;28;98412;-70
2022/05/27 10:03:00;;;;;;;;;;;;;;;21.25;30.67;101032.69;5007102;28;99143;-69
2022/05/27 10:05:28;;;;;;;;;;;;;;;21.77;30.05;101035.78;5007503;28;97676;-69
2022/05/27 10:07:57;;;;;;;;;;;;;;;22.49;29.34;101032.81;5010905;28;97205;-70
2022/05/27 10:10:28;;;;;;;;;;;;;;;22.61;29.18;101037.19;5002377;28;99363;-69
2022/05/27 10:12:54;;;;;;;;;;;;;;;21.98;29.82;101035.97;5000906;28;99596;-68
2022/05/27 10:15:25;;;;;;;;;;;;;;;21.20;31.00;101040.25;5001823;28;97108;-69
2022/05/27 10:17:52;;;;;;;;;;;;;;;21.31;31.25;101040.28;5003612;28;97038;-68
2022/05/27 10:20:22;;;;;;;;;;;;;;;20.71;31.80;101026.84;5006487;28;100419;-69
2022/05/27 10:22:58;;;;;;;;;;;;;;;21.35;31.97;101039.06;5005088;28;100181;-69
2022/05/27 10:25:30;;;;;;;;;;;;;;;21.23;32.08;101042.69;5004510;28;96862;-69
2022/05/27 10:27:56;;;;;;;;;;;;;;;21.85;31.89;101037.88;5003884;28;96734;-68
2022/05/27 10:30:24;;;;;;;;;;;;;;;20.53;32.64;101039.78;5006848;28;98912;-69
2022/05/27 10:32:52;;;;;;;;;;;;;;;20.88;32.56;101045.25;5004636;28;98837;-69
2022/05/27 10:35:34;;;;;;;;;;;;;;;20.40;32.92;101028.22;5007383;28;96915;-70
2022/05/27 10:38:10;;;;;;;;;;;;;;;20.48;31.96;101045.47;5000040;28;96936;-69
2022/05/27 10:40:38;;;;;;;;;;;;;;;20.32;32.84;101047.53;5002786;28;99175;-68
2022/05/27 10:43:11;;;;;;;;;;;;;;;20.60;32.88;101036.56;4999338;28;98763;-68
2022/05/27 10:45:39;;;;;;;;;;;;;;;20.91;32.18;101045.06;5006061;28;99060;-68
2022/05/27 10:48:30;;;;;;;;;;;;;;;20.92;32.03;101041.41;5004191;28;97486;-69
2022/05/27 10:51:03;;;;;;;;;;;;;;;21.11;31.79;101030.13;4998823;28;99188;-69
2022/05/27 10:53:43;;;;;;;;;;;;;;;20.69;31.97;101032.31;5004293;28;98825;-69
2022/05/27 10:56:16;;;;;;;;;;;;;;;20.97;32.00;101013.22;5004147;28;97299;-69
2022/05/27 11:04:40;;;;;;;;;;;;;;;21.54;30.67;101019.69;5001261;28;97087;-69
2022/05/27 11:07:16;;;;;;;;;;;;;;;21.55;29.36;101000.75;4996308;28;98057;-70
2022/05/27 11:09:48;;;;;;;;;;;;;;;21.24;29.76;101012.16;4998785;28;97349;-70
2022/05/27 11:12:22;;;;;;;;;;;;;;;21.72;29.06;100997.63;5000402;28;97844;-68
2022/05/27 11:15:11;;;;;;;;;;;;;;;21.63;29.17;100995.66;5006013;28;100488;-69
2022/05/27 11:17:45;;;;;;;;;;;;;;;21.48;29.44;100989.63;5000307;28;97270;-68
2022/05/27 11:20:32;;;;;;;;;;;;;;;20.95;28.88;101008.91;5002582;28;97333;-68
2022/05/27 11:23:05;;;;;;;;;;;;;;;20.98;28.87;101014.94;5002759;28;98863;-68
2022/05/27 11:25:37;;;;;;;;;;;;;;;20.29;29.90;101002.97;5002419;28;99181;-69
2022/05/27 11:28:18;;;;;;;;;;;;;;;20.88;29.08;101003.16;5004048;28;96824;-69
2022/05/27 11:30:50;;;;;;;;;;;;;;;20.93;29.79;100995.63;5001129;28;98269;-69
2022/05/27 11:33:31;;;;;;;;;;;;;;;21.79;30.00;100988.09;5002514;28;99378;-69
2022/05/27 11:36:10;;;;;;;;;;;;;;;22.39;28.90;100989.59;4998192;28;99681;-68
2022/05/27 11:38:48;;;;;;;;;;;;;;;22.51;28.75;100983.22;5001298;28;97423;-69
2022/05/27 11:41:20;;;;;;;;;;;;;;;21.81;29.06;100994.22;5002070;28;97997;-70
2022/05/27 11:43:48;;;;;;;;;;;;;;;20.95;30.32;100990.13;5001378;28;98934;-69
2022/05/27 11:46:24;;;;;;;;;;;;;;;21.25;30.06;100989.69;5002375;28;97806;-68
2022/05/27 11:48:54;;;;;;;;;;;;;;;20.38;31.39;100996.13;4999551;28;96802;-69
2022/05/27 11:51:28;;;;;;;;;;;;;;;20.63;31.30;101008.63;5003530;28;97607;-70
2022/05/27 11:54:04;;;;;;;;;;;;;;;20.77;32.80;101038.00;4999235;28;99197;-69
2022/05/27 11:56:37;;;;;;;;;;;;;;;19.89;36.97;101082.72;5000423;28;98773;-69
2022/05/27 11:59:05;;;;;;;;;;;;;;;18.79;39.94;101056.19;5005395;28;96911;-70
2022/05/27 12:01:36;;;;;;;;;;;;;;;19.35;40.16;101048.94;5000302;28;97428;-69
2022/05/27 12:04:07;;;;;;;;;;;;;;;20.25;40.26;101044.41;5003925;28;98844;-69
2022/05/27 12:06:38;;;;;;;;;;;;;;;19.85;39.10;101035.63;4999394;28;100422;-68
2022/05/27 12:09:09;;;;;;;;;;;;;;;19.73;39.30;101011.50;5003785;28;96873;-69
2022/05/27 12:11:38;;;;;;;;;;;;;;;20.24;40.79;101013.19;5004048;28;97222;-69
2022/05/27 12:14:06;;;;;;;;;;;;;;;20.36;38.52;100994.50;5005646;28;98453;-70
2022/05/27 12:16:37;;;;;;;;;;;;;;;20.34;36.92;100993.78;5005697;28;99186;-70
2022/05/27 12:19:05;;;;;;;;;;;;;;;20.66;37.40;100986.94;5005076;28;96944;-68
2022/05/27 12:21:34;;;;;;;;;;;;;;;20.68;37.09;100990.34;5000537;28;97306;-69
2022/05/27 12:24:04;;;;;;;;;;;;;;;21.63;34.44;100978.66;5002034;28;97711;-69
2022/05/27 12:26:34;;;;;;;;;;;;;;;21.28;34.57;100973.31;5002694;28;97949;-69
2022/05/27 12:29:03;;;;;;;;;;;;;;;22.05;32.51;100969.09;5002604;28;96766;-69
2022/05/27 12:31:31;;;;;;;;;;;;;;;22.20;31.09;100960.63;5000349;28;97348;-69
2022/05/27 12:33:57;;;;;;;;;;;;;;;22.03;30.13;100960.28;5000097;28;99026;-67
2022/05/27 12:36:24;;;;;;;;;;;;;;;22.01;30.41;100951.44;4999956;28;99091;-69
2022/05/27 12:38:53;;;;;;;;;;;;;;;22.11;30.03;100960.53;5004294;28;97230;-68
2022/05/27 12:41:32;;;;;;;;;;;;;;;21.27;30.29;100960.84;5002416;28;97197;-68
2022/05/27 12:44:01;;;;;;;;;;;;;;;21.22;30.89;100974.63;5001119;28;98912;-68
2022/05/27 12:46:32;;;;;;;;;;;;;;;20.59;30.75;100974.91;4999830;28;99026;-69
2022/05/27 12:49:17;;;;;;;;;;;;;;;20.89;30.21;100972.63;5004254;28;96864;-69
2022/05/27 12:51:46;;;;;;;;;;;;;;;20.72;30.78;100986.47;5001394;28;98807;-69
2022/05/27 12:54:32;;;;;;;;;;;;;;;20.56;31.87;100993.91;5000142;28;97703;-69
2022/05/27 13:02:44;;;;;;;;;;;;;;;21.23;30.54;100978.19;5002057;28;96906;-68
2022/05/27 13:05:14;;;;;;;;;;;;;;;21.35;30.58;100971.88;5001021;28;98375;-68
2022/05/27 13:07:44;;;;;;;;;;;;;;;22.31;29.38;100959.78;4999733;28;101340;-69
2022/05/27 13:10:29;;;;;;;;;;;;;;;22.71;28.18;100961.91;5003671;28;96796;-68
2022/05/27 13:13:00;;;;;;;;;;;;;;;22.50;26.75;100945.66;5000278;28;97070;-68
2022/05/27 13:15:32;;;;;;;;;;;;;;;22.71;27.80;100946.56;4998684;28;98273;-71
2022/05/27 13:18:08;;;;;;;;;;;;;;;23.12;25.90;100948.53;4998013;28;100529;-69
2022/05/27 13:20:42;;;;;;;;;;;;;;;23.83;25.40;100944.16;5000812;28;96845;-68
2022/05/27 13:23:13;;;;;;;;;;;;;;;25.04;24.70;100944.97;5006543;28;98542;-68